createdAt,value
2023-01-02T00:00:58.924Z,12.38
2023-01-02T00:03:25.967Z,13.60
2023-01-02T00:05:52.816Z,12.18
2023-01-02T00:08:20.463Z,12.88
2023-01-02T00:10:47.228Z,13.82
2023-01-02T00:13:14.378Z,14.05
2023-01-02T00:15:41.165Z,12.60
2023-01-02T00:18:07.977Z,11.98
2023-01-02T00:20:34.882Z,12.25
2023-01-02T00:23:01.989Z,12.43
2023-01-02T00:25:29.277Z,12.90
2023-01-02T00:27:56.815Z,13.77
2023-01-02T00:30:23.517Z,15.38
2023-01-02T00:32:50.211Z,19.27
2023-01-02T00:35:17.039Z,21.08
2023-01-02T00:37:43.969Z,19.63
2023-01-02T00:40:13.926Z,15.73
2023-01-02T00:42:41.891Z,13.60
2023-01-02T00:45:10.376Z,12.30
2023-01-02T00:47:37.166Z,15.18
2023-01-02T00:50:05.378Z,12.38
2023-01-02T00:52:32.186Z,14.43
2023-01-02T00:54:58.964Z,15.27
2023-01-02T00:57:25.771Z,13.55
2023-01-02T00:59:52.643Z,12.50
2023-01-02T01:02:19.426Z,12.27
2023-01-02T01:04:46.277Z,11.10
2023-01-02T01:07:13.018Z,11.95
2023-01-02T01:09:39.802Z,10.07
2023-01-02T01:12:06.745Z,12.95
2023-01-02T01:14:33.569Z,12.70
2023-01-02T01:17:00.718Z,11.65
2023-01-02T01:19:34.714Z,12.32
2023-01-02T01:22:01.703Z,10.30
2023-01-02T01:24:28.544Z,12.25
2023-01-02T01:26:55.293Z,11.57
2023-01-02T01:29:22.147Z,12.73
2023-01-02T01:31:48.946Z,10.82
2023-01-02T01:34:15.811Z,12.57
2023-01-02T01:36:42.561Z,11.20
2023-01-02T01:39:09.297Z,11.63
2023-01-02T01:41:36.075Z,11.90
2023-01-02T01:44:41.515Z,12.57
2023-01-02T01:47:20.317Z,12.75
2023-01-02T01:49:49.792Z,13.43
2023-01-02T01:52:23.391Z,13.10
2023-01-02T01:55:07.623Z,15.20
2023-01-02T01:57:39.657Z,13.23
2023-01-02T02:00:08.306Z,14.40
2023-01-02T02:02:37.474Z,12.52
2023-01-02T02:05:06.731Z,12.13
2023-01-02T02:07:37.823Z,14.45
2023-01-02T02:10:08.498Z,14.07
2023-01-02T02:12:35.329Z,13.77
2023-01-02T02:15:02.497Z,14.63
2023-01-02T02:17:57.844Z,14.90
2023-01-02T02:20:30.344Z,15.02
2023-01-02T02:23:17.875Z,17.15
2023-01-02T02:26:01.597Z,15.88
2023-01-02T02:28:56.190Z,14.80
2023-01-02T02:31:43.873Z,16.15
2023-01-02T02:34:48.544Z,15.63
2023-01-02T02:37:32.196Z,18.13
2023-01-02T02:40:24.871Z,19.40
2023-01-02T02:43:31.219Z,20.85
2023-01-02T02:46:23.109Z,20.92
2023-01-02T02:49:01.450Z,19.85
2023-01-02T02:51:30.965Z,17.65
2023-01-02T02:54:05.526Z,18.45
2023-01-02T02:56:32.618Z,20.77
2023-01-02T02:58:59.831Z,17.65
2023-01-02T03:01:30.892Z,19.60
2023-01-02T03:03:59.645Z,19.33
2023-01-02T03:06:57.213Z,16.75
2023-01-02T03:09:36.010Z,16.60
2023-01-02T03:12:02.707Z,18.90
2023-01-02T03:14:53.781Z,19.65
2023-01-02T03:17:32.492Z,17.52
2023-01-02T03:20:07.169Z,14.27
2023-01-02T03:22:39.121Z,17.65
2023-01-02T03:25:07.213Z,16.35
2023-01-02T03:27:37.974Z,17.13
2023-01-02T03:30:08.841Z,16.63
2023-01-02T03:32:44.419Z,18.30
2023-01-02T03:35:15.500Z,18.95
2023-01-02T03:37:48.912Z,20.73
2023-01-02T03:40:31.994Z,20.45
2023-01-02T03:43:04.041Z,19.20
2023-01-02T03:45:40.268Z,20.27
2023-01-02T03:48:48.296Z,17.95
2023-01-02T03:51:15.078Z,18.02
2023-01-02T03:53:42.045Z,19.77
2023-01-02T03:56:24.449Z,22.08
2023-01-02T03:58:58.467Z,19.77
2023-01-02T04:01:41.965Z,23.20
2023-01-02T04:04:41.285Z,19.00
2023-01-02T04:07:15.111Z,19.63
2023-01-02T04:09:44.565Z,19.60
2023-01-02T04:12:17.591Z,19.92
2023-01-02T04:14:48.782Z,19.38
2023-01-02T04:17:18.466Z,21.13
2023-01-02T04:19:52.034Z,21.83
2023-01-02T04:22:27.358Z,25.83
2023-01-02T04:24:58.028Z,21.42
2023-01-02T04:27:29.694Z,27.25
2023-01-02T04:29:56.773Z,23.65
2023-01-02T04:32:29.972Z,23.45
2023-01-02T04:34:58.243Z,24.67
2023-01-02T04:37:33.355Z,24.33
2023-01-02T04:40:04.536Z,21.58
2023-01-02T04:42:31.343Z,22.60
2023-01-02T04:44:58.009Z,24.98
2023-01-02T04:47:24.832Z,27.10
2023-01-02T04:49:51.577Z,22.77
2023-01-02T04:52:18.505Z,22.08
2023-01-02T04:54:45.230Z,33.85
2023-01-02T04:57:15.031Z,38.78
2023-01-02T05:04:31.711Z,28.52
2023-01-02T05:06:58.476Z,29.30
2023-01-02T05:09:25.207Z,26.50
2023-01-02T05:11:52.072Z,29.13
2023-01-02T05:14:19.851Z,24.58
2023-01-02T05:16:47.497Z,23.65
2023-01-02T05:19:14.308Z,25.35
2023-01-02T05:21:59.819Z,20.77
2023-01-02T05:24:27.345Z,22.40
2023-01-02T05:26:54.850Z,24.20
2023-01-02T05:29:21.619Z,20.55
2023-01-02T05:31:48.347Z,19.98
2023-01-02T05:34:16.351Z,19.98
2023-01-02T05:36:43.257Z,18.58
2023-01-02T05:39:14.489Z,19.40
2023-01-02T05:41:41.974Z,19.25
2023-01-02T05:44:10.348Z,20.42
2023-01-02T05:46:39.128Z,19.85
2023-01-02T05:51:36.843Z,18.85
2023-01-02T05:54:04.493Z,20.48
2023-01-02T05:56:31.402Z,19.83
2023-01-02T05:58:58.217Z,22.30
2023-01-02T06:01:29.930Z,23.77
2023-01-02T06:03:59.139Z,19.13
2023-01-02T06:09:04.312Z,19.98
2023-01-02T06:11:31.829Z,21.05
2023-01-02T06:13:58.705Z,20.95
2023-01-02T06:16:25.642Z,25.55
2023-01-02T06:18:53.194Z,27.65
2023-01-02T06:21:21.212Z,27.67
2023-01-02T06:23:53.414Z,29.13
2023-01-02T06:26:20.943Z,22.48
2023-01-02T06:28:51.285Z,20.80
2023-01-02T06:31:19.664Z,21.38
2023-01-02T06:33:46.929Z,17.75
2023-01-02T06:36:16.293Z,18.58
2023-01-02T06:38:43.955Z,34.35
2023-01-02T06:41:10.814Z,21.58
2023-01-02T06:43:46.156Z,30.45
2023-01-02T06:46:16.641Z,25.63
2023-01-02T06:48:43.952Z,24.75
2023-01-02T06:51:16.317Z,26.83
2023-01-02T06:53:44.591Z,24.83
2023-01-02T06:56:43.296Z,29.63
2023-01-02T06:59:10.567Z,29.98
2023-01-02T07:01:37.376Z,26.95
2023-01-02T07:04:04.307Z,25.58
2023-01-02T07:06:31.149Z,23.65
2023-01-02T07:08:57.912Z,23.67
2023-01-02T07:11:25.548Z,23.70
2023-01-02T07:13:54.151Z,18.73
2023-01-02T07:18:49.473Z,18.75
2023-01-02T07:21:18.234Z,14.05
2023-01-02T07:23:45.310Z,21.23
2023-01-02T07:26:13.160Z,19.13
2023-01-02T07:28:40.232Z,17.85
2023-01-02T07:31:19.126Z,22.60
2023-01-02T07:33:46.085Z,18.02
2023-01-02T07:36:18.251Z,21.23
2023-01-02T07:38:49.257Z,18.70
2023-01-02T07:41:17.542Z,22.73
2023-01-02T07:43:45.606Z,25.40
2023-01-02T07:46:14.723Z,20.38
2023-01-02T07:48:41.763Z,24.38
2023-01-02T07:51:08.846Z,21.55
2023-01-02T07:53:36.260Z,27.38
2023-01-02T07:56:03.425Z,29.10
2023-01-02T07:58:32.131Z,29.83
2023-01-02T08:01:05.250Z,38.95
2023-01-02T08:03:32.897Z,34.70
2023-01-02T08:06:08.181Z,45.38
2023-01-02T08:08:35.703Z,37.85
2023-01-02T08:11:14.572Z,37.83
2023-01-02T08:13:42.074Z,30.92
2023-01-02T08:16:10.386Z,35.78
2023-01-02T08:18:37.489Z,38.35
2023-01-02T08:21:04.991Z,39.85
2023-01-02T08:23:31.913Z,46.08
2023-01-02T08:26:04.376Z,46.42
2023-01-02T08:28:32.128Z,35.35
2023-01-02T08:31:00.292Z,44.67
2023-01-02T08:33:27.890Z,44.50
2023-01-02T08:35:55.620Z,49.92
2023-01-02T08:38:22.477Z,41.88
2023-01-02T08:40:49.257Z,39.17
2023-01-02T08:43:16.416Z,35.72
2023-01-02T08:45:43.361Z,43.17
2023-01-02T08:48:20.736Z,44.85
2023-01-02T08:50:50.007Z,34.85
2023-01-02T08:53:17.231Z,39.88
2023-01-02T08:55:43.972Z,36.50
2023-01-02T08:58:11.101Z,34.22
2023-01-02T09:00:37.917Z,43.28
2023-01-02T09:03:04.959Z,34.78
2023-01-02T09:05:31.827Z,34.50
2023-01-02T09:07:59.011Z,31.48
2023-01-02T09:10:26.028Z,30.30
2023-01-02T09:12:53.166Z,30.90
2023-01-02T09:15:20.014Z,29.95
2023-01-02T09:17:46.822Z,27.92
2023-01-02T09:20:13.585Z,34.20
2023-01-02T09:22:40.742Z,28.05
2023-01-02T09:25:08.023Z,25.48
2023-01-02T09:27:34.801Z,29.45
2023-01-02T09:30:01.540Z,27.38
2023-01-02T09:32:28.305Z,29.67
2023-01-02T09:34:55.030Z,27.95
2023-01-02T09:37:21.733Z,23.95
2023-01-02T09:39:48.546Z,31.63
2023-01-02T09:42:17.188Z,36.47
2023-01-02T09:44:43.932Z,27.70
2023-01-02T09:47:10.586Z,29.80
2023-01-02T09:49:47.483Z,29.75
2023-01-02T09:52:22.156Z,31.25
2023-01-02T09:57:28.546Z,27.92
2023-01-02T10:00:20.947Z,31.27
2023-01-02T10:03:12.603Z,27.48
2023-01-02T10:06:05.944Z,25.70
2023-01-02T10:09:16.385Z,27.92
2023-01-02T10:12:06.593Z,27.08
2023-01-02T10:14:44.660Z,44.55
2023-01-02T10:17:15.475Z,39.70
2023-01-02T10:19:56.025Z,32.83
2023-01-02T10:22:33.445Z,29.00
2023-01-02T10:25:02.796Z,29.63
2023-01-02T10:27:36.213Z,38.85
2023-01-02T10:30:09.520Z,32.22
2023-01-02T10:32:39.585Z,30.95
2023-01-02T10:35:06.306Z,26.85
2023-01-02T10:37:34.566Z,35.67
2023-01-02T10:40:01.715Z,26.92
2023-01-02T10:42:31.132Z,25.83
2023-01-02T10:44:57.863Z,32.75
2023-01-02T10:47:35.575Z,28.10
2023-01-02T10:50:05.480Z,31.02
2023-01-02T10:52:41.527Z,22.88
2023-01-02T10:55:08.453Z,33.63
2023-01-02T10:57:45.329Z,23.40
2023-01-02T11:00:20.178Z,19.52
2023-01-02T11:02:55.440Z,21.20
2023-01-02T11:05:27.474Z,19.45
2023-01-02T11:07:55.149Z,22.83
2023-01-02T11:10:39.825Z,19.20
2023-01-02T11:13:15.572Z,21.17
2023-01-02T11:15:56.500Z,21.10
2023-01-02T11:18:23.310Z,20.42
2023-01-02T11:20:53.654Z,20.77
2023-01-02T11:23:26.185Z,20.27
2023-01-02T11:25:54.639Z,19.38
2023-01-02T11:28:27.188Z,20.00
2023-01-02T11:31:06.368Z,18.55
2023-01-02T11:33:35.520Z,19.63
2023-01-02T11:36:03.645Z,19.67
2023-01-02T11:38:48.834Z,23.48
2023-01-02T11:41:55.951Z,22.60
2023-01-02T11:44:34.577Z,23.38
2023-01-02T11:47:03.875Z,26.15
2023-01-02T11:49:40.473Z,24.95
2023-01-02T11:52:12.949Z,20.83
2023-01-02T11:54:55.065Z,21.33
2023-01-02T11:58:00.571Z,20.80
2023-01-02T12:00:33.173Z,20.23
2023-01-02T12:03:18.309Z,21.73
2023-01-02T12:06:07.285Z,20.02
2023-01-02T12:08:55.044Z,19.15
2023-01-02T12:11:52.556Z,26.98
2023-01-02T12:14:52.473Z,20.00
2023-01-02T12:17:42.413Z,17.45
2023-01-02T12:20:27.093Z,19.70
2023-01-02T12:23:18.639Z,19.35
2023-01-02T12:25:57.330Z,23.52
2023-01-02T12:28:55.942Z,20.77
2023-01-02T12:31:44.597Z,20.15
2023-01-02T12:34:32.804Z,22.15
2023-01-02T12:37:30.344Z,24.85
2023-01-02T12:40:06.453Z,22.23
2023-01-02T12:42:54.447Z,28.23
2023-01-02T12:45:50.539Z,23.50
2023-01-02T12:48:46.180Z,18.85
2023-01-02T12:51:19.688Z,24.40
2023-01-02T12:54:25.493Z,21.13
2023-01-02T12:56:55.038Z,18.40
2023-01-02T12:59:49.386Z,16.73
2023-01-02T13:02:19.052Z,19.33
2023-01-02T13:04:55.208Z,22.02
2023-01-02T13:07:37.192Z,24.10
2023-01-02T13:10:06.560Z,28.23
2023-01-02T13:12:35.863Z,27.17
2023-01-02T13:15:24.598Z,48.45
2023-01-02T13:17:51.267Z,28.98
2023-01-02T13:20:47.309Z,24.00
2023-01-02T13:23:46.827Z,28.17
2023-01-02T13:26:16.753Z,18.33
2023-01-02T13:29:07.004Z,15.60
2023-01-02T13:31:46.887Z,17.90
2023-01-02T13:36:51.341Z,18.48
2023-01-02T13:39:23.088Z,23.08
2023-01-02T13:42:20.112Z,20.52
2023-01-02T13:45:00.108Z,20.60
2023-01-02T13:47:38.883Z,16.85
2023-01-02T13:50:20.032Z,16.70
2023-01-02T13:53:02.926Z,17.33
2023-01-02T13:55:37.811Z,18.40
2023-01-02T13:58:13.843Z,16.02
2023-01-02T14:00:51.621Z,18.13
2023-01-02T14:03:23.971Z,17.60
2023-01-02T14:06:01.347Z,17.40
2023-01-02T14:08:35.639Z,16.75
2023-01-02T14:11:10.786Z,17.08
2023-01-02T14:13:45.068Z,17.58
2023-01-02T14:16:15.067Z,19.45
2023-01-02T14:18:46.402Z,17.65
2023-01-02T14:24:37.728Z,8.45
2023-01-02T14:27:19.937Z,7.65
2023-01-02T14:30:13.167Z,7.63
2023-01-02T14:32:43.110Z,7.55
2023-01-02T14:35:15.988Z,5.07
2023-01-02T14:37:47.174Z,6.78
2023-01-02T14:40:22.707Z,6.95
2023-01-02T14:43:32.308Z,6.22
2023-01-02T14:46:10.429Z,6.88
2023-01-02T14:49:01.666Z,7.25
2023-01-02T14:52:03.094Z,6.70
2023-01-02T14:54:39.663Z,8.00
2023-01-02T14:57:28.471Z,7.13
2023-01-02T14:59:56.325Z,7.07
2023-01-02T15:02:30.920Z,7.22
2023-01-02T15:05:06.384Z,8.15
2023-01-02T15:07:55.881Z,8.50
2023-01-02T15:10:23.658Z,6.75
2023-01-02T15:13:05.100Z,7.03
2023-01-02T15:15:42.716Z,7.32
2023-01-02T15:18:20.351Z,6.93
2023-01-02T15:20:53.140Z,7.75
2023-01-02T15:23:22.644Z,7.05
2023-01-02T15:25:49.843Z,8.55
2023-01-02T15:28:42.814Z,4.93
2023-01-02T15:31:16.145Z,6.13
2023-01-02T15:33:43.062Z,7.07
2023-01-02T15:36:17.563Z,6.50
2023-01-02T15:38:45.065Z,6.95
2023-01-02T15:41:19.772Z,7.75
2023-01-02T15:44:06.104Z,8.40
2023-01-02T15:46:33.305Z,11.25
2023-01-02T15:49:02.960Z,9.02
2023-01-02T15:51:40.352Z,9.63
2023-01-02T15:54:14.286Z,9.38
2023-01-02T15:56:41.812Z,9.18
2023-01-02T15:59:34.740Z,8.95
2023-01-02T16:02:03.199Z,9.43
2023-01-02T16:04:33.243Z,9.02
2023-01-02T16:07:14.062Z,9.23
2023-01-02T16:09:46.865Z,8.55
2023-01-02T16:12:20.948Z,8.63
2023-01-02T16:14:52.957Z,9.05
2023-01-02T16:17:27.677Z,6.45
2023-01-02T16:20:21.963Z,10.10
2023-01-02T16:22:59.958Z,9.43
2023-01-02T16:25:32.187Z,9.43
2023-01-02T16:27:58.857Z,9.00
2023-01-02T16:30:25.517Z,9.25
2023-01-02T16:32:52.493Z,10.40
2023-01-02T16:35:23.731Z,9.25
2023-01-02T16:37:52.156Z,9.88
2023-01-02T16:41:00.452Z,9.65
2023-01-02T16:43:12.145Z,8.90
2023-01-02T16:45:39.586Z,8.82
2023-01-02T16:48:11.410Z,8.95
2023-01-02T16:50:43.766Z,9.18
2023-01-02T16:53:20.438Z,9.32
2023-01-02T16:55:47.240Z,9.95
2023-01-02T16:58:14.050Z,9.00
2023-01-02T17:00:43.805Z,6.80
2023-01-02T17:03:17.250Z,9.45
2023-01-02T17:06:01.304Z,8.25
2023-01-02T17:08:31.295Z,6.40
2023-01-02T17:10:58.983Z,8.40
2023-01-02T17:13:26.860Z,9.02
2023-01-02T17:15:54.692Z,8.75
2023-01-02T17:18:22.197Z,7.05
2023-01-02T17:20:49.430Z,8.52
2023-01-02T17:23:18.980Z,7.93
2023-01-02T17:25:46.662Z,7.72
2023-01-02T17:28:14.282Z,8.05
2023-01-02T17:30:42.949Z,9.02
2023-01-02T17:33:09.747Z,7.60
2023-01-02T17:35:37.064Z,8.77
2023-01-02T17:38:04.554Z,8.32
2023-01-02T17:40:31.285Z,5.32
2023-01-02T17:42:58.472Z,5.22
2023-01-02T17:45:25.352Z,7.80
2023-01-02T17:48:30.941Z,8.65
2023-01-02T17:50:40.192Z,9.20
2023-01-02T17:53:09.148Z,11.00
2023-01-02T17:55:35.895Z,8.57
2023-01-02T17:58:03.856Z,9.40
2023-01-02T18:00:30.661Z,8.90
2023-01-02T18:02:57.510Z,9.10
2023-01-02T18:05:24.295Z,8.77
2023-01-02T18:07:52.476Z,8.93
2023-01-02T18:10:20.848Z,10.18
2023-01-02T18:12:49.992Z,9.55
2023-01-02T18:15:19.810Z,9.20
2023-01-02T18:24:03.422Z,97.70
2023-01-02T18:26:31.618Z,32.47
2023-01-02T18:31:41.358Z,69.97
2023-01-02T18:34:46.619Z,28.98
2023-01-02T18:39:43.298Z,27.38
2023-01-02T18:42:16.150Z,26.92
2023-01-02T18:44:42.948Z,36.85
2023-01-02T18:47:27.838Z,30.27
2023-01-02T18:49:58.813Z,23.77
2023-01-02T18:52:32.130Z,33.70
2023-01-02T18:55:16.250Z,26.27
2023-01-02T18:57:48.482Z,31.17
2023-01-02T19:00:33.708Z,22.30
2023-01-02T19:03:24.980Z,22.77
2023-01-02T19:05:51.863Z,20.75
2023-01-02T19:08:37.455Z,22.58
2023-01-02T19:11:36.466Z,20.17
2023-01-02T19:14:16.378Z,22.23
2023-01-02T19:16:43.515Z,34.70
2023-01-02T19:19:20.744Z,36.75
2023-01-02T19:21:48.433Z,38.28
2023-01-02T19:24:22.839Z,32.30
2023-01-02T19:26:52.305Z,63.90
2023-01-02T19:29:22.947Z,45.35
2023-01-02T19:32:04.821Z,38.67
2023-01-02T19:34:45.700Z,29.33
2023-01-02T19:37:12.382Z,46.80
2023-01-02T19:39:47.128Z,34.63
2023-01-02T19:42:19.758Z,29.70
2023-01-02T19:44:48.842Z,32.72
2023-01-02T19:47:16.563Z,21.45
2023-01-02T19:49:43.675Z,22.25
2023-01-02T19:52:12.174Z,24.05
2023-01-02T19:54:40.115Z,28.45
2023-01-02T19:57:08.341Z,23.13
2023-01-02T19:59:43.307Z,23.30
2023-01-02T20:02:10.819Z,21.30
2023-01-02T20:04:37.702Z,20.67
2023-01-02T20:07:04.452Z,22.25
2023-01-02T20:09:32.027Z,20.13
2023-01-02T20:12:17.616Z,21.48
2023-01-02T20:14:44.504Z,19.85
2023-01-02T20:17:11.215Z,19.33
2023-01-02T20:19:38.538Z,22.58
2023-01-02T20:22:06.206Z,21.75
2023-01-02T20:24:33.511Z,20.90
2023-01-02T20:27:01.719Z,23.30
2023-01-02T20:29:31.099Z,19.20
2023-01-02T20:31:59.513Z,21.15
2023-01-02T20:34:26.566Z,22.70
2023-01-02T20:36:53.983Z,19.38
2023-01-02T20:39:20.913Z,22.30
2023-01-02T20:41:47.690Z,19.77
2023-01-02T20:44:14.871Z,21.52
2023-01-02T20:46:41.932Z,19.25
2023-01-02T20:49:09.883Z,18.60
2023-01-02T20:51:37.180Z,18.95
2023-01-02T20:54:04.975Z,20.40
2023-01-02T20:56:32.798Z,21.35
2023-01-02T20:58:59.683Z,20.23
2023-01-02T21:01:27.433Z,18.90
2023-01-02T21:03:54.547Z,18.85
2023-01-02T21:06:21.473Z,18.50
2023-01-02T21:08:48.373Z,20.90
2023-01-02T21:11:15.191Z,24.48
2023-01-02T21:13:41.899Z,29.45
2023-01-02T21:16:08.669Z,26.80
2023-01-02T21:18:37.812Z,21.40
2023-01-02T21:21:11.385Z,20.83
2023-01-02T21:23:40.588Z,20.10
2023-01-02T21:26:09.890Z,21.13
2023-01-02T21:28:37.816Z,22.33
2023-01-02T21:31:05.370Z,20.58
2023-01-02T21:33:32.682Z,28.80
2023-01-02T21:36:01.750Z,27.42
2023-01-02T21:38:29.447Z,28.38
2023-01-02T21:41:17.374Z,32.67
2023-01-02T21:43:44.294Z,32.58
2023-01-02T21:46:11.209Z,31.38
2023-01-02T21:48:41.003Z,26.13
2023-01-02T21:51:07.913Z,26.35
2023-01-02T21:53:34.663Z,70.53
2023-01-02T21:56:01.574Z,25.65
2023-01-02T21:58:28.369Z,64.93
2023-01-02T22:00:55.159Z,33.10
2023-01-02T22:03:22.024Z,26.92
2023-01-02T22:05:48.931Z,28.20
2023-01-02T22:08:15.806Z,42.22
2023-01-02T22:10:42.539Z,27.77
2023-01-02T22:13:09.302Z,36.85
2023-01-02T22:15:36.085Z,29.77
2023-01-02T22:18:02.852Z,27.55
2023-01-02T22:20:29.620Z,31.65
2023-01-02T22:22:56.524Z,25.77
2023-01-02T22:25:23.598Z,23.30
2023-01-02T22:27:50.452Z,25.88
2023-01-02T22:30:22.049Z,26.33
2023-01-02T22:32:51.481Z,25.35
2023-01-02T22:35:18.402Z,24.50
2023-01-02T22:37:45.243Z,26.13
2023-01-02T22:40:12.514Z,24.70
2023-01-02T22:43:00.923Z,25.35
2023-01-02T22:45:33.017Z,23.52
2023-01-02T22:48:03.714Z,21.77
2023-01-02T22:50:41.925Z,26.95
2023-01-02T22:53:17.621Z,24.08
2023-01-02T22:55:44.409Z,25.95
2023-01-02T22:58:11.271Z,23.85
2023-01-02T23:00:38.067Z,25.65
2023-01-02T23:03:10.130Z,22.70
2023-01-02T23:05:37.030Z,23.35
2023-01-02T23:08:04.142Z,23.98
2023-01-02T23:10:30.932Z,23.77
2023-01-02T23:12:57.638Z,24.88
2023-01-02T23:15:24.508Z,23.60
2023-01-02T23:18:09.747Z,22.77
2023-01-02T23:20:36.603Z,21.95
2023-01-02T23:23:03.465Z,21.45
2023-01-02T23:25:30.189Z,21.80
2023-01-02T23:27:57.023Z,22.80
2023-01-02T23:30:23.817Z,20.52
2023-01-02T23:32:50.554Z,21.92
2023-01-02T23:35:17.464Z,22.17
2023-01-02T23:37:44.236Z,20.80
2023-01-02T23:40:11.790Z,20.70
2023-01-02T23:42:38.549Z,18.55
2023-01-02T23:45:05.543Z,20.20
2023-01-02T23:47:32.340Z,21.65
2023-01-02T23:49:59.086Z,20.40
2023-01-02T23:52:25.780Z,20.48
2023-01-02T23:54:52.451Z,27.33
2023-01-02T23:57:19.167Z,23.42
2023-01-02T23:59:45.974Z,21.17
